San Ygnacio, Texas
Current Conditions -  °F | °C
As of 9:55 AM on Thursday 23 Oct 2014 (Local Time) from KAPY Reporting Station
Scattered Clouds Scattered Clouds  
Wind Chill: 77°   Ceiling: Unl
Heat Index: 79°   Visibility: 10mi
Dew Point: 64°   Wind: 5mph
Humidity: 65%   Direction: 90°E
Pressure: 30.11"   Gusts: NA
Location:  27.04°N, 99.44°W
Report Text: KAPY 231455Z AUTO 09004KT 10SM SCT110 25/17 A3011 RMK AO2 T02490179
Loading
Personal Weather Stations






























Interactive Weather Map
Tropical Storm Tracking
New forecast layout! Learn more

10-Day Weather Forecast

Advertisements
Track Severe Weather on mobile